Aloha, Washington
Current Conditions -  °F | °C
As of 5:03 PM on Saturday 25 Oct 2014 (Local Time) from KHQM Reporting Station
Moderate Rain Moderate Rain  
Wind Chill: 14°   Ceiling: 1200
Heat Index: 14°   Visibility: 1.7mi
Dew Point: 12°   Wind: 36mph
Humidity: 89%   Direction: 260°W
Pressure: 29.25"   Gusts: 45mph
Location:  47.1899°N, 124.112°W
Report Text: KHQM 260003Z AUTO 26031G39KT 1 3/4SM RA BR BKN012 BKN017 OVC055 14/12 A2925 RMK AO2 PK WND 26039/0002 P0003 T01390122
Loading
Personal Weather Stations






























Interactive Weather Map
Tropical Storm Tracking
New forecast layout! Learn more

10-Day Weather Forecast

Advertisements
Track Severe Weather on mobile